createdAt,value
2024-01-20T00:01:07.780Z,4.60
2024-01-20T00:03:34.890Z,4.52
2024-01-20T00:06:02.691Z,4.53
2024-01-20T00:08:30.053Z,4.63
2024-01-20T00:10:57.590Z,4.61
2024-01-20T00:13:25.017Z,4.46
2024-01-20T00:15:56.773Z,4.47
2024-01-20T00:18:27.298Z,4.52
2024-01-20T00:20:54.504Z,4.58
2024-01-20T00:23:26.685Z,4.50
2024-01-20T00:25:54.626Z,4.44
2024-01-20T00:28:21.798Z,4.45
2024-01-20T00:30:53.922Z,4.32
2024-01-20T00:33:29.181Z,4.35
2024-01-20T00:35:57.355Z,4.31
2024-01-20T00:38:25.758Z,4.33
2024-01-20T00:40:56.834Z,4.29
2024-01-20T00:43:23.968Z,4.31
2024-01-20T00:45:51.002Z,4.24
2024-01-20T00:48:17.941Z,4.33
2024-01-20T00:50:45.340Z,4.28
2024-01-20T00:53:12.354Z,4.32
2024-01-20T00:55:39.353Z,4.24
2024-01-20T00:58:07.372Z,4.35
2024-01-20T01:00:34.254Z,4.24
2024-01-20T01:03:01.363Z,4.24
2024-01-20T01:05:28.513Z,4.18
2024-01-20T01:07:58.387Z,4.15
2024-01-20T01:10:35.217Z,4.10
2024-01-20T01:13:13.376Z,4.21
2024-01-20T01:15:46.253Z,4.15
2024-01-20T01:18:22.762Z,4.09
2024-01-20T01:20:49.835Z,3.98
2024-01-20T01:23:17.109Z,3.98
2024-01-20T01:25:45.194Z,3.95
2024-01-20T01:28:14.386Z,4.13
2024-01-20T01:30:41.319Z,4.05
2024-01-20T01:33:08.185Z,3.98
2024-01-20T01:35:35.094Z,3.93
2024-01-20T01:38:02.596Z,3.92
2024-01-20T01:40:29.886Z,3.91
2024-01-20T01:43:02.311Z,3.98
2024-01-20T01:45:35.217Z,4.14
2024-01-20T01:48:03.239Z,4.03
2024-01-20T01:50:30.560Z,3.99
2024-01-20T01:53:06.275Z,4.00
2024-01-20T01:55:41.075Z,4.05
2024-01-20T01:58:12.780Z,3.79
2024-01-20T02:00:41.102Z,3.83
2024-01-20T02:03:18.025Z,3.82
2024-01-20T02:05:45.111Z,3.83
2024-01-20T02:08:12.527Z,3.93
2024-01-20T02:10:41.008Z,3.97
2024-01-20T02:13:16.517Z,3.86
2024-01-20T02:15:44.353Z,3.89
2024-01-20T02:18:11.510Z,3.73
2024-01-20T02:20:45.005Z,3.71
2024-01-20T02:23:12.118Z,3.71
2024-01-20T02:25:39.238Z,3.70
2024-01-20T02:28:06.403Z,3.69
2024-01-20T02:30:37.957Z,3.87
2024-01-20T02:33:05.660Z,3.75
2024-01-20T02:35:35.181Z,3.85
2024-01-20T02:38:02.862Z,3.73
2024-01-20T02:40:30.746Z,3.60
2024-01-20T02:43:00.060Z,3.60
2024-01-20T02:45:27.086Z,3.54
2024-01-20T02:47:56.123Z,3.62
2024-01-20T02:50:23.279Z,3.52
2024-01-20T02:52:50.294Z,3.45
2024-01-20T02:55:17.293Z,3.66
2024-01-20T02:57:45.965Z,3.52
2024-01-20T03:00:16.925Z,3.49
2024-01-20T03:02:43.794Z,3.44
2024-01-20T03:05:10.758Z,3.52
2024-01-20T03:07:44.511Z,3.41
2024-01-20T03:10:15.821Z,3.59
2024-01-20T03:12:43.734Z,3.28
2024-01-20T03:15:11.021Z,3.29
2024-01-20T03:17:38.128Z,3.39
2024-01-20T03:20:05.447Z,3.31
2024-01-20T03:22:32.336Z,3.19
2024-01-20T03:24:59.272Z,3.30
2024-01-20T03:27:26.312Z,3.30
2024-01-20T03:29:54.691Z,3.28
2024-01-20T03:32:21.686Z,3.42
2024-01-20T03:34:48.761Z,3.22
2024-01-20T03:37:17.802Z,3.29
2024-01-20T03:39:46.989Z,3.44
2024-01-20T03:42:14.023Z,3.39
2024-01-20T03:44:40.916Z,3.28
2024-01-20T03:47:07.793Z,3.28
2024-01-20T03:49:38.934Z,3.11
2024-01-20T03:52:06.229Z,3.21
2024-01-20T03:54:33.260Z,3.10
2024-01-20T03:57:00.411Z,3.07
2024-01-20T03:59:27.415Z,3.14
2024-01-20T04:01:54.359Z,3.23
2024-01-20T04:04:24.311Z,3.28
2024-01-20T04:06:51.233Z,3.26
2024-01-20T04:09:18.294Z,3.18
2024-01-20T04:11:48.718Z,3.08
2024-01-20T04:14:15.607Z,3.10
2024-01-20T04:16:42.562Z,3.12
2024-01-20T04:19:09.559Z,2.94
2024-01-20T04:21:36.554Z,2.94
2024-01-20T04:24:03.751Z,2.96
2024-01-20T04:26:30.833Z,2.81
2024-01-20T04:28:59.869Z,2.86
2024-01-20T04:31:26.962Z,2.95
2024-01-20T04:33:55.133Z,3.07
2024-01-20T04:36:22.079Z,3.01
2024-01-20T04:38:52.233Z,2.88
2024-01-20T04:41:19.337Z,3.00
2024-01-20T04:43:47.155Z,2.85
2024-01-20T04:46:14.048Z,2.96
2024-01-20T04:48:41.110Z,2.98
2024-01-20T04:51:10.539Z,2.95
2024-01-20T04:53:37.712Z,2.84
2024-01-20T04:56:09.389Z,2.93
2024-01-20T04:58:38.122Z,2.86
2024-01-20T05:01:05.812Z,2.88
2024-01-20T05:03:32.926Z,2.72
2024-01-20T05:06:01.492Z,2.67
2024-01-20T05:08:36.273Z,2.66
2024-01-20T05:11:03.312Z,2.65
2024-01-20T05:13:30.423Z,2.53
2024-01-20T05:15:57.545Z,2.56
2024-01-20T05:18:24.718Z,2.57
2024-01-20T05:20:51.771Z,2.56
2024-01-20T05:23:19.884Z,2.53
2024-01-20T05:25:46.893Z,2.47
2024-01-20T05:28:13.999Z,2.44
2024-01-20T05:30:42.312Z,2.52
2024-01-20T05:33:09.946Z,2.42
2024-01-20T05:35:40.999Z,2.43
2024-01-20T05:38:07.897Z,2.31
2024-01-20T05:40:35.757Z,2.39
2024-01-20T05:43:05.692Z,2.24
2024-01-20T05:45:32.817Z,2.31
2024-01-20T05:47:59.932Z,2.28
2024-01-20T05:50:27.013Z,2.21
2024-01-20T05:52:53.900Z,2.25
2024-01-20T05:55:24.048Z,2.17
2024-01-20T05:57:51.092Z,2.15
2024-01-20T06:00:20.621Z,2.14
2024-01-20T06:02:47.817Z,2.02
2024-01-20T06:05:14.966Z,1.92
2024-01-20T06:07:41.947Z,1.97
2024-01-20T06:10:09.415Z,1.99
2024-01-20T06:12:37.358Z,1.96
2024-01-20T06:15:04.737Z,1.73
2024-01-20T06:17:31.732Z,1.86
2024-01-20T06:19:58.782Z,1.90
2024-01-20T06:22:25.684Z,1.97
2024-01-20T06:24:52.963Z,1.95
2024-01-20T06:27:20.032Z,1.88
2024-01-20T06:29:47.071Z,1.85
2024-01-20T06:32:13.963Z,1.87
2024-01-20T06:34:41.200Z,1.81
2024-01-20T06:37:08.775Z,1.84
2024-01-20T06:39:35.948Z,1.82
2024-01-20T06:42:02.906Z,1.72
2024-01-20T06:44:29.914Z,1.68
2024-01-20T06:46:58.585Z,1.61
2024-01-20T06:49:25.641Z,1.66
2024-01-20T06:51:52.742Z,1.72
2024-01-20T06:54:19.696Z,1.77
2024-01-20T06:56:46.670Z,1.71
2024-01-20T06:59:13.609Z,1.72
2024-01-20T07:01:40.532Z,1.68
2024-01-20T07:04:07.561Z,1.75
2024-01-20T07:06:34.721Z,1.78
2024-01-20T07:09:04.181Z,1.80
2024-01-20T07:11:31.186Z,1.77
2024-01-20T07:13:58.609Z,1.76
2024-01-20T07:16:25.633Z,1.80
2024-01-20T07:18:54.775Z,1.75
2024-01-20T07:21:22.816Z,1.75
2024-01-20T07:23:49.799Z,1.81
2024-01-20T07:26:17.022Z,1.78
2024-01-20T07:28:44.061Z,1.77
2024-01-20T07:31:11.325Z,1.80
2024-01-20T07:33:42.740Z,1.78
2024-01-20T07:36:16.666Z,1.76
2024-01-20T07:38:43.612Z,1.87
2024-01-20T07:41:10.614Z,1.90
2024-01-20T07:43:37.673Z,1.88
2024-01-20T07:46:05.071Z,1.91
2024-01-20T07:48:32.187Z,1.91
2024-01-20T07:50:59.239Z,1.99
2024-01-20T07:53:26.403Z,1.94
2024-01-20T07:55:53.594Z,1.96
2024-01-20T07:58:20.741Z,2.04
2024-01-20T08:00:48.078Z,1.98
2024-01-20T08:03:15.295Z,2.14
2024-01-20T08:05:42.531Z,2.25
2024-01-20T08:08:09.653Z,2.21
2024-01-20T08:10:36.682Z,2.38
2024-01-20T08:13:08.214Z,2.42
2024-01-20T08:15:40.116Z,2.35
2024-01-20T08:18:10.475Z,2.43
2024-01-20T08:20:37.569Z,2.50
2024-01-20T08:23:10.957Z,2.52
2024-01-20T08:25:38.246Z,2.54
2024-01-20T08:28:05.532Z,2.69
2024-01-20T08:30:32.712Z,2.76
2024-01-20T08:33:03.455Z,2.77
2024-01-20T08:35:32.294Z,2.88
2024-01-20T08:37:59.429Z,3.03
2024-01-20T08:40:26.393Z,2.96
2024-01-20T08:42:53.348Z,3.10
2024-01-20T08:45:22.570Z,3.16
2024-01-20T08:47:50.430Z,3.26
2024-01-20T08:50:17.647Z,3.30
2024-01-20T08:52:52.516Z,3.18
2024-01-20T08:55:20.347Z,3.16
2024-01-20T08:57:47.663Z,3.21
2024-01-20T09:00:22.555Z,3.18
2024-01-20T09:02:50.210Z,3.25
2024-01-20T09:05:19.500Z,3.26
2024-01-20T09:07:46.847Z,3.33
2024-01-20T09:10:13.891Z,3.31
2024-01-20T09:12:40.987Z,3.43
2024-01-20T09:15:08.664Z,3.59
2024-01-20T09:17:43.520Z,3.66
2024-01-20T09:20:11.129Z,3.69
2024-01-20T09:22:44.455Z,3.62
2024-01-20T09:25:17.574Z,3.71
2024-01-20T09:27:44.732Z,3.75
2024-01-20T09:30:13.455Z,3.83
2024-01-20T09:32:48.567Z,3.88
2024-01-20T09:35:15.869Z,3.89
2024-01-20T09:37:42.939Z,3.89
2024-01-20T09:40:18.502Z,4.00
2024-01-20T09:43:09.597Z,4.15
2024-01-20T09:45:44.205Z,4.20
2024-01-20T09:48:20.868Z,4.29
2024-01-20T09:50:56.366Z,4.28
2024-01-20T09:53:31.893Z,4.42
2024-01-20T09:56:06.117Z,4.59
2024-01-20T09:58:43.768Z,4.48
2024-01-20T10:01:35.419Z,4.57
2024-01-20T10:04:09.504Z,4.60
2024-01-20T10:06:43.669Z,4.75
2024-01-20T10:09:18.920Z,4.81
2024-01-20T10:11:48.872Z,4.94
2024-01-20T10:14:16.780Z,4.96
2024-01-20T10:17:08.261Z,5.07
2024-01-20T10:19:39.870Z,5.01
2024-01-20T10:22:11.199Z,5.15
2024-01-20T10:25:34.802Z,5.17
2024-01-20T10:28:09.392Z,5.31
2024-01-20T10:30:44.370Z,5.30
2024-01-20T10:33:11.688Z,5.06
2024-01-20T10:35:40.138Z,5.08
2024-01-20T10:38:24.766Z,5.07
2024-01-20T10:40:58.541Z,5.18
2024-01-20T10:43:32.161Z,5.26
2024-01-20T10:46:38.158Z,5.16
2024-01-20T10:49:16.602Z,5.27
2024-01-20T10:51:51.852Z,5.26
2024-01-20T10:54:27.717Z,5.16
2024-01-20T10:57:02.733Z,5.22
2024-01-20T10:59:39.080Z,5.13
2024-01-20T11:02:08.294Z,5.27
2024-01-20T11:04:46.949Z,5.28
2024-01-20T11:07:23.612Z,5.27
2024-01-20T11:10:01.413Z,5.32
2024-01-20T11:12:29.402Z,5.23
2024-01-20T11:14:59.392Z,5.33
2024-01-20T11:17:31.907Z,5.38
2024-01-20T11:20:08.597Z,5.38
2024-01-20T11:22:53.259Z,5.55
2024-01-20T11:25:26.832Z,5.61
2024-01-20T11:28:04.117Z,5.60
2024-01-20T11:30:37.792Z,5.56
2024-01-20T11:33:08.104Z,5.60
2024-01-20T11:35:39.266Z,5.72
2024-01-20T11:38:06.801Z,5.77
2024-01-20T11:40:34.045Z,5.95
2024-01-20T11:43:11.021Z,6.04
2024-01-20T11:45:44.137Z,5.90
2024-01-20T11:48:15.232Z,5.73
2024-01-20T11:50:44.461Z,5.89
2024-01-20T11:53:12.174Z,6.00
2024-01-20T11:55:39.518Z,5.85
2024-01-20T11:58:14.406Z,6.02
2024-01-20T12:00:43.822Z,6.01
2024-01-20T12:03:13.501Z,6.05
2024-01-20T12:05:43.757Z,6.20
2024-01-20T12:08:11.546Z,6.26
2024-01-20T12:10:41.684Z,6.37
2024-01-20T12:13:17.076Z,6.53
2024-01-20T12:15:53.630Z,6.56
2024-01-20T12:18:21.256Z,6.58
2024-01-20T12:20:51.705Z,6.46
2024-01-20T12:23:23.360Z,6.54
2024-01-20T12:25:56.852Z,6.88
2024-01-20T12:28:27.674Z,7.13
2024-01-20T12:30:54.805Z,7.35
2024-01-20T12:33:22.095Z,7.58
2024-01-20T12:35:49.153Z,7.41
2024-01-20T12:38:16.378Z,7.31
2024-01-20T12:40:43.661Z,7.23
2024-01-20T12:43:12.455Z,7.25
2024-01-20T12:45:39.452Z,7.44
2024-01-20T12:48:06.829Z,7.23
2024-01-20T12:50:33.820Z,7.42
2024-01-20T12:53:00.882Z,7.70
2024-01-20T12:55:27.950Z,7.60
2024-01-20T12:57:54.981Z,7.79
2024-01-20T13:00:22.153Z,7.84
2024-01-20T13:02:49.602Z,8.08
2024-01-20T13:05:16.761Z,7.86
2024-01-20T13:07:43.850Z,8.16
2024-01-20T13:10:20.051Z,8.33
2024-01-20T13:13:01.080Z,8.04
2024-01-20T13:15:30.368Z,7.89
2024-01-20T13:18:06.186Z,8.05
2024-01-20T13:20:33.444Z,8.33
2024-01-20T13:23:00.786Z,8.30
2024-01-20T13:25:29.766Z,8.00
2024-01-20T13:27:56.795Z,7.98
2024-01-20T13:30:23.914Z,8.16
2024-01-20T13:32:51.293Z,8.29
2024-01-20T13:35:21.728Z,8.47
2024-01-20T13:37:49.145Z,8.16
2024-01-20T13:40:19.498Z,8.13
2024-01-20T13:42:46.551Z,8.31
2024-01-20T13:45:13.964Z,7.94
2024-01-20T13:47:44.530Z,7.73
2024-01-20T13:50:19.654Z,7.72
2024-01-20T13:52:46.682Z,7.77
2024-01-20T13:55:20.581Z,7.89
2024-01-20T13:57:48.626Z,8.03
2024-01-20T14:00:18.319Z,8.05
2024-01-20T14:02:46.146Z,8.16
2024-01-20T14:05:20.893Z,8.11
2024-01-20T14:07:56.134Z,8.25
2024-01-20T14:10:23.852Z,8.17
2024-01-20T14:12:53.280Z,7.96
2024-01-20T14:15:20.632Z,8.28
2024-01-20T14:17:48.532Z,8.26
2024-01-20T14:20:19.943Z,8.41
2024-01-20T14:22:55.016Z,9.08
2024-01-20T14:25:22.183Z,8.75
2024-01-20T14:27:49.765Z,8.62
2024-01-20T14:30:28.673Z,8.45
2024-01-20T14:32:56.558Z,8.39
2024-01-20T14:35:26.010Z,8.56
2024-01-20T14:37:53.252Z,8.27
2024-01-20T14:40:20.603Z,8.42
2024-01-20T14:42:47.973Z,8.35
2024-01-20T14:45:15.626Z,8.33
2024-01-20T14:47:51.592Z,8.40
2024-01-20T14:50:22.989Z,8.32
2024-01-20T14:52:53.198Z,8.27
2024-01-20T14:55:22.778Z,8.22
2024-01-20T14:57:50.381Z,8.42
2024-01-20T15:00:20.445Z,8.44
2024-01-20T15:02:48.058Z,8.37
2024-01-20T15:05:15.179Z,8.64
2024-01-20T15:07:42.248Z,8.80
2024-01-20T15:10:09.686Z,8.68
2024-01-20T15:12:37.365Z,8.35
2024-01-20T15:15:08.075Z,8.21
2024-01-20T15:17:35.429Z,8.18
2024-01-20T15:20:02.481Z,8.06
2024-01-20T15:22:30.380Z,7.85
2024-01-20T15:24:57.465Z,7.78
2024-01-20T15:27:25.070Z,7.47
2024-01-20T15:29:53.961Z,7.41
2024-01-20T15:32:21.485Z,7.37
2024-01-20T15:34:51.046Z,7.19
2024-01-20T15:37:20.658Z,7.24
2024-01-20T15:39:51.372Z,7.23
2024-01-20T15:42:19.644Z,7.11
2024-01-20T15:44:48.048Z,6.93
2024-01-20T15:47:15.382Z,6.88
2024-01-20T15:49:44.244Z,6.81
2024-01-20T15:52:12.295Z,6.83
2024-01-20T15:54:40.758Z,6.88
2024-01-20T15:57:10.246Z,6.90
2024-01-20T15:59:37.404Z,6.86
2024-01-20T16:02:04.943Z,6.73
2024-01-20T16:04:35.430Z,6.75
2024-01-20T16:07:03.373Z,6.54
2024-01-20T16:09:30.913Z,6.42
2024-01-20T16:12:06.841Z,6.42
2024-01-20T16:14:35.499Z,6.27
2024-01-20T16:17:04.106Z,6.25
2024-01-20T16:19:31.853Z,6.18
2024-01-20T16:21:59.462Z,6.15
2024-01-20T16:24:27.189Z,6.43
2024-01-20T16:26:56.926Z,6.29
2024-01-20T16:29:30.060Z,6.33
2024-01-20T16:31:59.370Z,6.37
2024-01-20T16:34:29.195Z,6.36
2024-01-20T16:36:59.444Z,6.13
2024-01-20T16:39:27.866Z,6.20
2024-01-20T16:41:57.917Z,6.25
2024-01-20T16:44:26.273Z,6.11
2024-01-20T16:46:55.093Z,6.09
2024-01-20T16:49:26.743Z,6.08
2024-01-20T16:51:57.840Z,5.96
2024-01-20T16:54:26.284Z,5.86
2024-01-20T16:56:55.016Z,5.87
2024-01-20T16:59:22.384Z,5.77
2024-01-20T17:01:52.457Z,5.92
2024-01-20T17:04:23.290Z,5.73
2024-01-20T17:06:50.660Z,5.72
2024-01-20T17:09:18.007Z,5.65
2024-01-20T17:11:46.512Z,5.66
2024-01-20T17:14:19.137Z,5.53
2024-01-20T17:16:47.997Z,5.40
2024-01-20T17:19:16.253Z,5.43
2024-01-20T17:21:43.841Z,5.47
2024-01-20T17:24:13.389Z,5.61
2024-01-20T17:26:40.424Z,5.41
2024-01-20T17:29:07.486Z,5.49
2024-01-20T17:31:34.960Z,5.54
2024-01-20T17:34:02.618Z,5.47
2024-01-20T17:36:31.040Z,5.41
2024-01-20T17:38:58.641Z,5.33
2024-01-20T17:41:25.659Z,5.23
2024-01-20T17:43:52.764Z,5.24
2024-01-20T17:46:20.125Z,5.13
2024-01-20T17:48:47.294Z,5.22
2024-01-20T17:51:14.601Z,5.18
2024-01-20T17:53:41.593Z,5.18
2024-01-20T17:56:09.151Z,5.24
2024-01-20T17:58:37.192Z,5.20
2024-01-20T18:01:04.482Z,5.15
2024-01-20T18:03:36.502Z,5.17
2024-01-20T18:06:04.088Z,5.04
2024-01-20T18:08:31.966Z,5.11
2024-01-20T18:11:00.478Z,5.01
2024-01-20T18:13:27.884Z,4.93
2024-01-20T18:15:55.181Z,4.93
2024-01-20T18:18:22.778Z,4.91
2024-01-20T18:20:50.233Z,4.90
2024-01-20T18:23:19.689Z,4.83
2024-01-20T18:25:46.892Z,4.78
2024-01-20T18:28:15.590Z,4.71
2024-01-20T18:30:43.316Z,4.72
2024-01-20T18:33:13.065Z,4.87
2024-01-20T18:35:40.350Z,4.81
2024-01-20T18:38:08.073Z,4.83
2024-01-20T18:40:36.137Z,4.75
2024-01-20T18:43:03.192Z,4.81
2024-01-20T18:45:30.786Z,4.73
2024-01-20T18:47:58.782Z,4.79
2024-01-20T18:50:26.172Z,4.73
2024-01-20T18:52:57.113Z,4.68
2024-01-20T18:55:24.172Z,4.59
2024-01-20T18:57:51.200Z,4.62
2024-01-20T19:00:18.611Z,4.61
2024-01-20T19:02:45.805Z,4.60
2024-01-20T19:05:13.907Z,4.64
2024-01-20T19:07:47.813Z,4.80
2024-01-20T19:10:15.049Z,4.61
2024-01-20T19:12:50.173Z,4.54
2024-01-20T19:15:17.460Z,4.56
2024-01-20T19:17:53.571Z,4.60
2024-01-20T19:20:26.720Z,4.61
2024-01-20T19:22:57.223Z,4.56
2024-01-20T19:25:24.353Z,4.58
2024-01-20T19:27:52.831Z,4.50
2024-01-20T19:30:21.640Z,4.47
2024-01-20T19:32:50.300Z,4.70
2024-01-20T19:35:23.617Z,4.52
2024-01-20T19:37:50.832Z,4.44
2024-01-20T19:40:18.023Z,4.38
2024-01-20T19:42:45.019Z,4.26
2024-01-20T19:45:12.894Z,4.18
2024-01-20T19:47:39.839Z,4.16
2024-01-20T19:50:08.979Z,4.29
2024-01-20T19:52:40.003Z,4.34
2024-01-20T19:55:11.503Z,4.25
2024-01-20T19:57:38.597Z,4.23
2024-01-20T20:00:06.484Z,4.37
2024-01-20T20:02:34.422Z,4.29
2024-01-20T20:05:02.994Z,4.25
2024-01-20T20:07:30.591Z,4.26
2024-01-20T20:09:57.703Z,4.22
2024-01-20T20:12:24.756Z,4.26
2024-01-20T20:14:53.270Z,4.42
2024-01-20T20:17:20.344Z,4.32
2024-01-20T20:19:47.646Z,4.22
2024-01-20T20:22:17.546Z,4.15
2024-01-20T20:24:46.169Z,4.30
2024-01-20T20:27:13.814Z,4.15
2024-01-20T20:29:40.986Z,4.21
2024-01-20T20:32:08.175Z,4.16
2024-01-20T20:34:39.834Z,4.28
2024-01-20T20:37:08.016Z,4.13
2024-01-20T20:39:35.867Z,4.26
2024-01-20T20:42:04.094Z,4.05
2024-01-20T20:44:33.933Z,4.16
2024-01-20T20:47:02.180Z,4.14
2024-01-20T20:49:31.820Z,4.15
2024-01-20T20:51:58.961Z,4.19
2024-01-20T20:54:26.704Z,4.20
2024-01-20T20:56:53.778Z,4.27
2024-01-20T20:59:20.795Z,4.16
2024-01-20T21:01:48.587Z,4.20
2024-01-20T21:04:15.745Z,4.10
2024-01-20T21:06:45.871Z,4.18
2024-01-20T21:09:12.955Z,4.18
2024-01-20T21:11:40.036Z,4.12
2024-01-20T21:14:15.469Z,4.10
2024-01-20T21:16:42.538Z,4.18
2024-01-20T21:19:09.686Z,4.17
2024-01-20T21:21:36.855Z,4.15
2024-01-20T21:24:05.177Z,4.25
2024-01-20T21:26:33.764Z,4.16
2024-01-20T21:29:00.935Z,4.24
2024-01-20T21:31:28.592Z,4.23
2024-01-20T21:33:55.919Z,4.14
2024-01-20T21:36:24.471Z,4.17
2024-01-20T21:38:51.673Z,4.22
2024-01-20T21:41:23.133Z,4.14
2024-01-20T21:43:50.870Z,4.06
2024-01-20T21:46:17.907Z,4.19
2024-01-20T21:48:46.214Z,4.15
2024-01-20T21:51:13.273Z,4.33
2024-01-20T21:53:40.181Z,4.52
2024-01-20T21:56:07.613Z,4.45
2024-01-20T21:58:34.664Z,4.31
2024-01-20T22:01:01.758Z,4.22
2024-01-20T22:03:29.038Z,4.25
2024-01-20T22:05:56.316Z,4.30
2024-01-20T22:08:25.308Z,4.19
2024-01-20T22:10:59.989Z,4.25
2024-01-20T22:13:31.150Z,4.25
2024-01-20T22:15:58.524Z,4.10
2024-01-20T22:18:33.623Z,4.08
2024-01-20T22:21:01.617Z,4.09
2024-01-20T22:23:29.127Z,4.12
2024-01-20T22:26:03.981Z,4.14
2024-01-20T22:28:31.232Z,4.26
2024-01-20T22:31:04.058Z,4.21
2024-01-20T22:33:31.358Z,4.19
2024-01-20T22:35:58.424Z,4.17
2024-01-20T22:38:25.430Z,4.09
2024-01-20T22:40:55.334Z,4.28
2024-01-20T22:43:22.452Z,4.20
2024-01-20T22:45:58.700Z,4.10
2024-01-20T22:48:26.114Z,4.10
2024-01-20T22:51:03.161Z,4.06
2024-01-20T22:53:32.358Z,4.11
2024-01-20T22:55:59.308Z,4.16
2024-01-20T22:58:27.514Z,4.10
2024-01-20T23:01:04.821Z,4.10
2024-01-20T23:03:32.063Z,4.12
2024-01-20T23:05:59.194Z,4.18
2024-01-20T23:08:27.557Z,4.01
2024-01-20T23:10:55.028Z,4.02
2024-01-20T23:13:22.274Z,3.99
2024-01-20T23:15:54.309Z,3.96
2024-01-20T23:18:23.171Z,3.96
2024-01-20T23:20:50.538Z,3.83
2024-01-20T23:23:17.680Z,3.88
2024-01-20T23:25:44.959Z,4.05
2024-01-20T23:28:12.074Z,3.96
2024-01-20T23:30:39.318Z,4.01
2024-01-20T23:33:09.400Z,3.75
2024-01-20T23:35:39.281Z,3.78
2024-01-20T23:38:09.376Z,3.85
2024-01-20T23:40:36.297Z,3.88
2024-01-20T23:43:03.703Z,3.89
2024-01-20T23:45:36.208Z,3.89
2024-01-20T23:48:05.083Z,3.83
2024-01-20T23:50:40.287Z,3.87
2024-01-20T23:53:07.368Z,3.95
2024-01-20T23:55:34.312Z,3.87
2024-01-20T23:58:01.303Z,3.80
